createdAt,value
2018-10-21T00:00:51.194Z,98804.48
2018-10-21T00:03:20.922Z,98808.69
2018-10-21T00:05:55.303Z,98811.54
2018-10-21T00:08:30.653Z,98808.64
2018-10-21T00:11:00.309Z,98810.50
2018-10-21T00:13:30.323Z,98804.72
2018-10-21T00:16:00.227Z,98799.08
2018-10-21T00:18:29.983Z,98804.14
2018-10-21T00:21:00.052Z,98806.00
2018-10-21T00:23:29.571Z,98804.78
2018-10-21T00:25:59.118Z,98806.31
2018-10-21T00:28:28.722Z,98804.59
2018-10-21T00:30:58.231Z,98802.38
2018-10-21T00:33:27.790Z,98801.31
2018-10-21T00:35:57.865Z,98809.08
2018-10-21T00:38:30.166Z,98798.23
2018-10-21T00:40:59.748Z,98801.23
2018-10-21T00:43:29.336Z,98795.81
2018-10-21T00:45:58.991Z,98792.27
2018-10-21T00:48:28.541Z,98793.27
2018-10-21T00:50:59.303Z,98796.48
2018-10-21T00:53:29.234Z,98796.40
2018-10-21T00:55:58.762Z,98806.24
2018-10-21T00:58:28.957Z,98801.46
2018-10-21T01:00:58.494Z,98801.95
2018-10-21T01:03:28.078Z,98795.32
2018-10-21T01:05:59.133Z,98799.39
2018-10-21T01:08:28.746Z,98792.42
2018-10-21T01:10:58.729Z,98787.50
2018-10-21T01:13:28.285Z,98778.52
2018-10-21T01:15:58.237Z,98768.78
2018-10-21T01:18:27.834Z,98773.70
2018-10-21T01:20:57.438Z,98772.13
2018-10-21T01:23:26.973Z,98775.02
2018-10-21T01:25:56.508Z,98778.55
2018-10-21T01:28:26.189Z,98787.34
2018-10-21T01:30:56.246Z,98790.05
2018-10-21T01:33:25.895Z,98790.19
2018-10-21T01:35:55.526Z,98797.95
2018-10-21T01:38:25.065Z,98794.39
2018-10-21T01:40:57.594Z,98795.88
2018-10-21T01:43:28.298Z,98802.30
2018-10-21T01:45:58.133Z,98808.70
2018-10-21T01:48:28.682Z,98811.91
2018-10-21T01:50:58.360Z,98811.09
2018-10-21T01:53:28.037Z,98810.23
2018-10-21T01:55:57.656Z,98807.66
2018-10-21T01:58:27.207Z,98801.39
2018-10-21T02:00:57.516Z,98797.83
2018-10-21T02:03:27.078Z,98794.25
2018-10-21T02:05:56.585Z,98796.61
2018-10-21T02:08:26.161Z,98791.69
2018-10-21T02:10:55.659Z,98798.95
2018-10-21T02:13:25.187Z,98798.59
2018-10-21T02:15:54.694Z,98797.23
2018-10-21T02:18:24.273Z,98801.94
2018-10-21T02:20:53.820Z,98795.17
2018-10-21T02:23:23.394Z,98796.52
2018-10-21T02:25:53.401Z,98793.98
2018-10-21T02:28:23.041Z,98803.59
2018-10-21T02:30:52.616Z,98790.55
2018-10-21T02:33:22.312Z,98788.34
2018-10-21T02:35:51.904Z,98778.01
2018-10-21T02:38:21.501Z,98781.22
2018-10-21T02:45:00.046Z,98781.13
2018-10-21T02:47:29.543Z,98781.98
2018-10-21T02:50:00.466Z,98782.84
2018-10-21T02:52:29.986Z,98778.09
2018-10-21T02:54:59.489Z,98782.16
2018-10-21T02:57:29.084Z,98775.03
2018-10-21T02:59:58.655Z,98778.23
2018-10-21T03:02:28.730Z,98781.44
2018-10-21T03:04:58.316Z,98778.73
2018-10-21T03:07:27.871Z,98776.16
2018-10-21T03:09:57.473Z,98775.30
2018-10-21T03:12:27.196Z,98773.45
2018-10-21T03:14:57.223Z,98756.98
2018-10-21T03:17:26.803Z,98762.89
2018-10-21T03:19:56.376Z,98756.63
2018-10-21T03:22:25.952Z,98765.73
2018-10-21T03:24:55.528Z,98764.91
2018-10-21T03:27:25.510Z,98755.94
2018-10-21T03:29:55.145Z,98756.93
2018-10-21T03:32:24.967Z,98755.58
2018-10-21T03:34:54.508Z,98747.81
2018-10-21T03:37:24.052Z,98756.56
2018-10-21T03:39:53.668Z,98751.16
2018-10-21T03:42:23.680Z,98751.16
2018-10-21T03:44:53.409Z,98745.73
2018-10-21T03:47:23.280Z,98738.47
2018-10-21T03:49:52.835Z,98740.82
2018-10-21T03:52:22.580Z,98738.61
2018-10-21T03:54:52.162Z,98730.13
2018-10-21T03:57:21.707Z,98735.19
2018-10-21T03:59:51.301Z,98734.83
2018-10-21T04:02:20.866Z,98734.83
2018-10-21T04:04:51.289Z,98734.47
2018-10-21T04:07:20.896Z,98732.75
2018-10-21T04:09:50.808Z,98728.69
2018-10-21T04:12:20.380Z,98732.25
2018-10-21T04:14:50.081Z,98728.36
2018-10-21T04:17:20.216Z,98727.51
2018-10-21T04:19:49.778Z,98726.52
2018-10-21T04:22:19.389Z,98731.56
2018-10-21T04:24:48.975Z,98722.23
2018-10-21T04:27:19.059Z,98720.02
2018-10-21T04:29:48.869Z,98719.66
2018-10-21T04:32:18.438Z,98717.81
2018-10-21T04:34:48.010Z,98714.74
2018-10-21T04:37:28.205Z,98714.38
2018-10-21T04:40:11.527Z,98720.79
2018-10-21T04:42:41.122Z,98713.84
2018-10-21T04:45:11.629Z,98714.38
2018-10-21T04:47:41.390Z,98712.67
2018-10-21T04:50:11.846Z,98712.67
2018-10-21T04:52:41.468Z,98711.55
2018-10-21T04:55:12.280Z,98715.10
2018-10-21T04:57:42.889Z,98711.41
2018-10-21T05:00:15.082Z,98707.61
2018-10-21T05:02:45.094Z,98706.48
2018-10-21T05:05:15.511Z,98706.34
2018-10-21T05:07:45.071Z,98706.39
2018-10-21T05:10:31.785Z,98705.84
2018-10-21T05:13:01.917Z,98699.39
2018-10-21T05:15:32.681Z,98702.82
2018-10-21T05:18:02.364Z,98704.80
2018-10-21T05:20:32.037Z,98695.12
2018-10-21T05:23:01.686Z,98691.73
2018-10-21T05:25:31.383Z,98691.09
2018-10-21T05:28:01.915Z,98695.52
2018-10-21T05:30:31.521Z,98695.59
2018-10-21T05:33:01.146Z,98692.08
2018-10-21T05:35:30.733Z,98680.02
2018-10-21T05:38:00.381Z,98690.11
2018-10-21T05:40:30.018Z,98686.80
2018-10-21T05:43:00.236Z,98690.37
2018-10-21T05:45:30.365Z,98687.02
2018-10-21T05:48:00.208Z,98688.77
2018-10-21T05:50:29.842Z,98690.98
2018-10-21T05:53:01.510Z,98688.98
2018-10-21T05:55:31.627Z,98694.12
2018-10-21T05:58:01.439Z,98697.55
2018-10-21T06:00:31.056Z,98703.07
2018-10-21T06:03:00.654Z,98703.93
2018-10-21T06:05:40.806Z,98704.78
2018-10-21T06:10:33.057Z,98703.22
2018-10-21T06:13:02.985Z,98702.03
2018-10-21T06:15:33.191Z,98700.86
2018-10-21T06:18:03.584Z,98709.49
2018-10-21T06:20:39.085Z,98708.85
2018-10-21T06:23:08.752Z,98702.78
2018-10-21T06:25:38.386Z,98710.63
2018-10-21T06:28:08.576Z,98714.31
2018-10-21T06:30:38.297Z,98716.16
2018-10-21T06:33:08.008Z,98719.23
2018-10-21T06:35:37.625Z,98719.91
2018-10-21T06:38:08.169Z,98718.55
2018-10-21T06:40:37.760Z,98723.69
2018-10-21T06:43:08.105Z,98727.97
2018-10-21T06:45:37.920Z,98726.25
2018-10-21T06:48:07.883Z,98728.03
2018-10-21T06:50:37.686Z,98729.25
2018-10-21T06:53:07.515Z,98728.03
2018-10-21T06:55:37.150Z,98738.73
2018-10-21T06:58:07.275Z,98738.84
2018-10-21T07:00:37.112Z,98735.61
2018-10-21T07:03:07.044Z,98747.98
2018-10-21T07:06:29.360Z,98744.02
2018-10-21T07:09:01.460Z,98748.16
2018-10-21T07:11:30.965Z,98755.22
2018-10-21T07:14:00.420Z,98759.89
2018-10-21T07:16:30.062Z,98760.22
2018-10-21T07:18:59.503Z,98759.75
2018-10-21T07:21:28.942Z,98762.12
2018-10-21T07:23:58.552Z,98767.65
2018-10-21T07:26:27.999Z,98772.57
2018-10-21T07:28:57.528Z,98776.05
2018-10-21T07:31:27.017Z,98772.26
2018-10-21T07:33:56.493Z,98772.26
2018-10-21T07:36:26.228Z,98769.72
2018-10-21T07:38:55.803Z,98768.19
2018-10-21T07:41:25.914Z,98766.70
2018-10-21T07:43:55.389Z,98766.20
2018-10-21T07:46:25.247Z,98771.12
2018-10-21T07:48:55.296Z,98769.62
2018-10-21T07:51:24.975Z,98773.69
2018-10-21T07:53:54.672Z,98775.30
2018-10-21T07:56:24.281Z,98771.81
2018-10-21T07:58:54.040Z,98771.46
2018-10-21T08:01:23.734Z,98770.99
2018-10-21T08:03:53.485Z,98770.28
2018-10-21T08:06:36.813Z,98762.75
2018-10-21T08:09:10.210Z,98758.97
2018-10-21T08:11:40.048Z,98757.98
2018-10-21T08:14:10.249Z,98759.80
2018-10-21T08:16:40.367Z,98761.00
2018-10-21T08:19:10.405Z,98755.16
2018-10-21T08:21:40.149Z,98757.12
2018-10-21T08:24:09.691Z,98764.43
2018-10-21T08:26:40.145Z,98756.62
2018-10-21T08:29:10.204Z,98755.62
2018-10-21T08:31:40.203Z,98765.28
2018-10-21T08:34:09.982Z,98763.02
2018-10-21T08:36:39.620Z,98759.05
2018-10-21T08:39:09.724Z,98764.47
2018-10-21T08:41:39.445Z,98758.30
2018-10-21T08:44:09.642Z,98764.36
2018-10-21T08:46:39.813Z,98768.78
2018-10-21T08:49:10.350Z,98763.50
2018-10-21T08:51:40.277Z,98768.81
2018-10-21T08:54:10.360Z,98762.59
2018-10-21T08:56:39.982Z,98761.73
2018-10-21T08:59:10.105Z,98757.81
2018-10-21T09:01:39.995Z,98757.73
2018-10-21T09:04:09.772Z,98757.90
2018-10-21T09:06:39.948Z,98751.47
2018-10-21T09:09:11.168Z,98751.32
2018-10-21T09:11:42.252Z,98751.53
2018-10-21T09:14:12.478Z,98753.59
2018-10-21T09:16:42.354Z,98751.55
2018-10-21T09:19:12.385Z,98755.69
2018-10-21T09:21:42.459Z,98758.42
2018-10-21T09:24:12.384Z,98757.25
2018-10-21T09:26:43.687Z,98755.03
2018-10-21T09:29:14.208Z,98753.55
2018-10-21T09:31:44.453Z,98755.27
2018-10-21T09:34:14.258Z,98757.63
2018-10-21T09:36:45.246Z,98759.04
2018-10-21T09:39:15.738Z,98755.47
2018-10-21T09:41:53.124Z,98757.00
2018-10-21T09:44:24.730Z,98759.56
2018-10-21T09:46:57.768Z,98759.63
2018-10-21T09:49:28.016Z,98756.78
2018-10-21T09:51:57.954Z,98753.26
2018-10-21T09:54:27.822Z,98749.54
2018-10-21T09:56:58.541Z,98746.64
2018-10-21T09:59:28.618Z,98742.06
2018-10-21T10:02:03.312Z,98745.84
2018-10-21T10:04:32.909Z,98741.61
2018-10-21T10:07:04.299Z,98740.25
2018-10-21T10:09:35.526Z,98737.73
2018-10-21T10:12:09.849Z,98741.48
2018-10-21T10:14:39.524Z,98730.97
2018-10-21T10:17:09.108Z,98729.80
2018-10-21T10:19:41.311Z,98725.58
2018-10-21T10:22:11.009Z,98727.29
2018-10-21T10:24:40.784Z,98723.03
2018-10-21T10:27:15.168Z,98725.25
2018-10-21T10:29:45.584Z,98716.23
2018-10-21T10:32:16.818Z,98719.30
2018-10-21T10:34:46.974Z,98718.80
2018-10-21T10:37:17.255Z,98717.29
2018-10-21T10:39:48.084Z,98716.78
2018-10-21T10:42:17.713Z,98718.14
2018-10-21T10:44:47.413Z,98724.28
2018-10-21T10:47:17.248Z,98724.13
2018-10-21T10:49:47.476Z,98719.08
2018-10-21T10:52:17.739Z,98717.53
2018-10-21T10:54:47.253Z,98713.81
2018-10-21T10:57:17.333Z,98714.52
2018-10-21T10:59:47.384Z,98708.73
2018-10-21T11:02:17.461Z,98709.08
2018-10-21T11:04:47.519Z,98717.93
2018-10-21T11:07:18.244Z,98709.62
2018-10-21T11:09:48.501Z,98704.70
2018-10-21T11:12:19.269Z,98700.77
2018-10-21T11:14:49.207Z,98693.67
2018-10-21T11:17:19.220Z,98701.99
2018-10-21T11:19:49.797Z,98690.97
2018-10-21T11:22:24.553Z,98694.53
2018-10-21T11:24:55.372Z,98699.31
2018-10-21T11:27:26.100Z,98688.64
2018-10-21T11:29:56.606Z,98686.42
2018-10-21T11:32:30.559Z,98679.80
2018-10-21T11:35:04.680Z,98677.58
2018-10-21T11:37:35.190Z,98677.77
2018-10-21T11:40:05.199Z,98680.18
2018-10-21T11:42:34.668Z,98670.67
2018-10-21T11:45:04.711Z,98672.23
2018-10-21T11:47:34.373Z,98672.61
2018-10-21T11:50:04.084Z,98671.41
2018-10-21T11:52:34.039Z,98668.69
2018-10-21T11:55:04.574Z,98657.66
2018-10-21T11:57:34.575Z,98655.95
2018-10-21T12:00:05.200Z,98645.78
2018-10-21T12:02:35.229Z,98643.25
2018-10-21T12:05:05.266Z,98647.48
2018-10-21T12:07:36.362Z,98640.02
2018-10-21T12:10:07.486Z,98636.83
2018-10-21T12:12:37.351Z,98634.97
2018-10-21T12:15:07.957Z,98627.81
2018-10-21T12:17:38.100Z,98624.78
2018-10-21T12:20:10.013Z,98624.46
2018-10-21T12:22:41.075Z,98620.73
2018-10-21T12:25:11.536Z,98615.95
2018-10-21T12:27:41.281Z,98612.91
2018-10-21T12:30:12.229Z,98617.84
2018-10-21T12:32:42.029Z,98610.38
2018-10-21T12:35:13.487Z,98605.09
2018-10-21T12:37:44.135Z,98606.67
2018-10-21T12:40:14.380Z,98603.81
2018-10-21T12:42:44.396Z,98609.95
2018-10-21T12:45:13.868Z,98605.20
2018-10-21T12:47:43.869Z,98602.12
2018-10-21T12:50:14.130Z,98601.10
2018-10-21T12:52:43.701Z,98598.56
2018-10-21T12:55:14.346Z,98595.83
2018-10-21T12:57:44.064Z,98596.69
2018-10-21T13:00:13.863Z,98604.19
2018-10-21T13:02:43.772Z,98591.94
2018-10-21T13:05:13.756Z,98599.43
2018-10-21T13:07:43.594Z,98597.41
2018-10-21T13:10:14.580Z,98593.81
2018-10-21T13:12:44.205Z,98591.94
2018-10-21T13:15:14.087Z,98594.00
2018-10-21T13:17:43.763Z,98593.83
2018-10-21T13:20:14.651Z,98595.88
2018-10-21T13:22:46.203Z,98594.51
2018-10-21T13:25:16.539Z,98598.10
2018-10-21T13:27:46.310Z,98590.63
2018-10-21T13:30:17.386Z,98585.16
2018-10-21T13:32:50.443Z,98584.33
2018-10-21T13:35:22.232Z,98577.50
2018-10-21T13:37:53.939Z,98571.38
2018-10-21T13:40:23.631Z,98574.95
2018-10-21T13:42:53.180Z,98570.36
2018-10-21T13:45:23.284Z,98573.92
2018-10-21T13:47:53.047Z,98565.24
2018-10-21T13:50:22.907Z,98563.38
2018-10-21T13:52:53.282Z,98557.92
2018-10-21T13:55:24.188Z,98558.45
2018-10-21T13:57:54.771Z,98541.92
2018-10-21T14:00:27.115Z,98543.11
2018-10-21T14:02:56.609Z,98542.78
2018-10-21T14:05:26.804Z,98540.20
2018-10-21T14:08:01.306Z,98542.25
2018-10-21T14:10:35.332Z,98537.99
2018-10-21T14:13:05.018Z,98538.68
2018-10-21T14:15:35.576Z,98534.08
2018-10-21T14:18:05.240Z,98533.58
2018-10-21T14:20:35.009Z,98535.08
2018-10-21T14:23:05.719Z,98528.61
2018-10-21T14:25:35.596Z,98527.11
2018-10-21T14:28:05.859Z,98528.78
2018-10-21T14:30:36.255Z,98530.48
2018-10-21T14:33:07.019Z,98519.11
2018-10-21T14:35:36.919Z,98517.72
2018-10-21T14:38:07.061Z,98513.30
2018-10-21T14:40:36.746Z,98513.98
2018-10-21T14:43:07.132Z,98512.59
2018-10-21T14:45:36.810Z,98506.63
2018-10-21T14:48:10.617Z,98506.29
2018-10-21T14:50:41.904Z,98505.09
2018-10-21T14:53:12.278Z,98498.94
2018-10-21T14:55:42.624Z,98504.89
2018-10-21T14:58:12.372Z,98504.38
2018-10-21T15:00:42.069Z,98494.16
2018-10-21T15:03:12.049Z,98493.48
2018-10-21T15:05:41.723Z,98500.95
2018-10-21T15:08:12.022Z,98490.38
2018-10-21T15:10:42.316Z,98493.45
2018-10-21T15:13:12.182Z,98492.25
2018-10-21T15:15:42.542Z,98493.95
2018-10-21T15:18:14.163Z,98487.99
2018-10-21T15:20:44.484Z,98480.84
2018-10-21T15:23:14.912Z,98476.58
2018-10-21T15:25:44.620Z,98485.91
2018-10-21T15:28:14.265Z,98487.27
2018-10-21T15:30:44.929Z,98478.28
2018-10-21T15:33:15.747Z,98472.62
2018-10-21T15:35:47.060Z,98472.62
2018-10-21T15:38:16.705Z,98474.66
2018-10-21T15:40:47.917Z,98474.33
2018-10-21T15:43:18.132Z,98471.94
2018-10-21T15:45:48.599Z,98467.68
2018-10-21T15:48:18.760Z,98468.53
2018-10-21T15:50:48.591Z,98469.72
2018-10-21T15:53:18.373Z,98466.82
2018-10-21T15:55:48.184Z,98467.84
2018-10-21T15:58:17.870Z,98473.64
2018-10-21T16:00:47.923Z,98465.47
2018-10-21T16:03:17.400Z,98463.80
2018-10-21T16:05:47.976Z,98469.89
2018-10-21T16:08:18.158Z,98465.12
2018-10-21T16:10:48.092Z,98466.14
2018-10-21T16:13:18.352Z,98478.23
2018-10-21T16:15:48.133Z,98473.30
2018-10-21T16:18:18.932Z,98474.48
2018-10-21T16:20:48.713Z,98470.56
2018-10-21T16:23:18.791Z,98466.99
2018-10-21T16:25:49.371Z,98469.55
2018-10-21T16:28:19.450Z,98467.33
2018-10-21T16:30:49.636Z,98467.50
2018-10-21T16:33:19.430Z,98467.16
2018-10-21T16:35:49.766Z,98470.05
2018-10-21T16:38:19.514Z,98462.73
2018-10-21T16:40:49.718Z,98466.81
2018-10-21T16:43:19.265Z,98469.03
2018-10-21T16:45:55.280Z,98473.43
2018-10-21T16:48:24.994Z,98476.50
2018-10-21T16:50:55.106Z,98468.83
2018-10-21T16:53:25.238Z,98475.98
2018-10-21T16:55:55.243Z,98470.87
2018-10-21T16:58:26.180Z,98475.81
2018-10-21T17:00:56.826Z,98476.66
2018-10-21T17:03:27.259Z,98481.81
2018-10-21T17:05:57.887Z,98484.89
2018-10-21T17:08:27.711Z,98486.41
2018-10-21T17:10:58.287Z,98480.62
2018-10-21T17:13:28.383Z,98478.88
2018-10-21T17:15:58.171Z,98471.22
2018-10-21T17:18:28.841Z,98474.10
2018-10-21T17:20:59.852Z,98475.94
2018-10-21T17:23:30.780Z,98479.00
2018-10-21T17:26:00.747Z,98482.06
2018-10-21T17:28:30.967Z,98482.41
2018-10-21T17:31:04.569Z,98477.47
2018-10-21T17:33:35.900Z,98478.32
2018-10-21T17:36:06.193Z,98480.88
2018-10-21T17:38:38.211Z,98476.09
2018-10-21T17:41:10.770Z,98481.03
2018-10-21T17:43:41.469Z,98482.41
2018-10-21T17:46:12.099Z,98482.91
2018-10-21T17:48:41.747Z,98482.58
2018-10-21T17:51:11.783Z,98485.13
2018-10-21T17:53:41.824Z,98485.65
2018-10-21T17:56:11.772Z,98487.02
2018-10-21T17:58:41.958Z,98481.55
2018-10-21T18:01:14.186Z,98482.02
2018-10-21T18:03:45.781Z,98485.42
2018-10-21T18:06:16.457Z,98485.94
2018-10-21T18:08:46.271Z,98480.65
2018-10-21T18:11:16.026Z,98482.35
2018-10-21T18:13:46.085Z,98487.30
2018-10-21T18:16:16.421Z,98480.98
2018-10-21T18:18:46.971Z,98483.38
2018-10-21T18:21:18.400Z,98482.02
2018-10-21T18:23:49.059Z,98483.72
2018-10-21T18:26:18.645Z,98482.02
2018-10-21T18:28:48.649Z,98487.13
2018-10-21T18:31:19.931Z,98483.54
2018-10-21T18:33:49.745Z,98477.39
2018-10-21T18:36:19.829Z,98479.95
2018-10-21T18:38:51.098Z,98480.12
2018-10-21T18:41:20.713Z,98485.91
2018-10-21T18:43:50.824Z,98476.87
2018-10-21T18:46:21.194Z,98482.84
2018-10-21T18:48:51.712Z,98475.67
2018-10-21T18:51:22.778Z,98481.64
2018-10-21T18:53:53.087Z,98487.27
2018-10-21T18:56:23.327Z,98480.29
2018-10-21T18:58:53.668Z,98484.55
2018-10-21T19:01:23.888Z,98482.82
2018-10-21T19:03:54.657Z,98478.71
2018-10-21T19:06:24.312Z,98487.56
2018-10-21T19:08:54.652Z,98478.70
2018-10-21T19:11:24.592Z,98483.13
2018-10-21T19:13:54.560Z,98487.22
2018-10-21T19:16:25.222Z,98483.98
2018-10-21T19:18:55.107Z,98483.98
2018-10-21T19:21:25.110Z,98480.73
2018-10-21T19:23:55.240Z,98473.73
2018-10-21T19:26:25.996Z,98476.48
2018-10-21T19:28:56.572Z,98476.14
2018-10-21T19:31:26.548Z,98476.99
2018-10-21T19:33:56.411Z,98474.27
2018-10-21T19:36:26.124Z,98471.03
2018-10-21T19:38:56.435Z,98470.69
2018-10-21T19:41:27.127Z,98475.13
2018-10-21T19:43:56.724Z,98478.19
2018-10-21T19:46:26.398Z,98475.22
2018-10-21T19:48:56.203Z,98470.79
2018-10-21T19:51:27.048Z,98465.00
2018-10-21T19:53:58.156Z,98468.58
2018-10-21T19:56:30.941Z,98464.81
2018-10-21T19:59:06.364Z,98461.75
2018-10-21T20:01:37.084Z,98463.63
2018-10-21T20:04:08.820Z,98460.05
2018-10-21T20:06:38.911Z,98459.72
2018-10-21T20:09:10.336Z,98460.23
2018-10-21T20:11:41.124Z,98454.36
2018-10-21T20:14:11.312Z,98458.80
2018-10-21T20:16:41.680Z,98453.33
2018-10-21T20:19:11.853Z,98458.50
2018-10-21T20:21:41.665Z,98458.61
2018-10-21T20:24:12.332Z,98464.11
2018-10-21T20:26:42.292Z,98456.16
2018-10-21T20:29:12.608Z,98456.77
2018-10-21T20:31:43.806Z,98454.73
2018-10-21T20:34:14.623Z,98458.48
2018-10-21T20:36:44.619Z,98459.73
2018-10-21T20:39:14.861Z,98461.23
2018-10-21T20:41:45.695Z,98465.83
2018-10-21T20:44:16.353Z,98458.03
2018-10-21T20:46:46.981Z,98469.12
2018-10-21T20:49:17.232Z,98469.97
2018-10-21T20:51:47.893Z,98475.81
2018-10-21T20:54:17.874Z,98475.00
2018-10-21T20:56:49.116Z,98485.23
2018-10-21T20:59:19.467Z,98484.20
2018-10-21T21:01:49.548Z,98486.59
2018-10-21T21:04:19.693Z,98487.66
2018-10-21T21:06:49.603Z,98491.74
2018-10-21T21:09:19.348Z,98489.02
2018-10-21T21:11:49.865Z,98488.16
2018-10-21T21:14:20.085Z,98488.03
2018-10-21T21:16:49.734Z,98490.89
2018-10-21T21:19:19.486Z,98491.91
2018-10-21T21:21:49.240Z,98486.19
2018-10-21T21:24:19.039Z,98483.13
2018-10-21T21:26:49.328Z,98483.32
2018-10-21T21:29:19.205Z,98486.73
2018-10-21T21:31:49.432Z,98483.69
2018-10-21T21:34:19.193Z,98490.16
2018-10-21T21:36:49.176Z,98489.45
2018-10-21T21:39:19.095Z,98490.50
2018-10-21T21:41:49.083Z,98491.69
2018-10-21T21:44:19.379Z,98495.59
2018-10-21T21:46:49.119Z,98499.20
2018-10-21T21:49:19.059Z,98506.01
2018-10-21T21:51:48.922Z,98506.17
2018-10-21T21:54:18.627Z,98507.19
2018-10-21T21:56:48.321Z,98508.57
2018-10-21T21:59:19.511Z,98515.20
2018-10-21T22:01:50.090Z,98511.45
2018-10-21T22:04:19.864Z,98512.33
2018-10-21T22:06:50.107Z,98506.54
2018-10-21T22:09:20.117Z,98511.47
2018-10-21T22:11:50.924Z,98508.25
2018-10-21T22:14:20.600Z,98509.60
2018-10-21T22:16:50.618Z,98513.34
2018-10-21T22:19:20.241Z,98513.88
2018-10-21T22:21:49.991Z,98509.44
2018-10-21T22:24:19.868Z,98511.64
2018-10-21T22:26:49.770Z,98508.41
2018-10-21T22:29:20.121Z,98511.30
2018-10-21T22:31:49.848Z,98511.50
2018-10-21T22:34:19.676Z,98510.81
2018-10-21T22:36:49.180Z,98505.20
2018-10-21T22:39:18.851Z,98498.05
2018-10-21T22:41:48.536Z,98500.78
2018-10-21T22:44:18.158Z,98493.95
2018-10-21T22:46:47.961Z,98490.89
2018-10-21T22:49:17.796Z,98484.44
2018-10-21T22:51:47.409Z,98486.99
2018-10-21T22:54:17.707Z,98487.50
2018-10-21T22:56:47.630Z,98488.47
2018-10-21T22:59:18.096Z,98501.41
2018-10-21T23:01:47.996Z,98493.91
2018-10-21T23:04:18.281Z,98494.75
2018-10-21T23:06:48.164Z,98498.48
2018-10-21T23:09:18.643Z,98500.36
2018-10-21T23:11:48.500Z,98498.32
2018-10-21T23:14:18.604Z,98498.98
2018-10-21T23:16:48.381Z,98496.62
2018-10-21T23:19:28.805Z,98500.00
2018-10-21T23:21:58.858Z,98500.87
2018-10-21T23:24:28.508Z,98503.91
2018-10-21T23:26:58.308Z,98503.41
2018-10-21T23:29:28.391Z,98505.61
2018-10-21T23:32:00.149Z,98505.77
2018-10-21T23:34:30.120Z,98503.55
2018-10-21T23:37:00.080Z,98508.14
2018-10-21T23:39:30.293Z,98504.57
2018-10-21T23:42:00.882Z,98505.59
2018-10-21T23:44:32.074Z,98503.69
2018-10-21T23:47:01.951Z,98499.44
2018-10-21T23:49:31.936Z,98503.52
2018-10-21T23:52:01.860Z,98498.77
2018-10-21T23:54:32.169Z,98497.57
2018-10-21T23:57:04.901Z,98493.97
2018-10-21T23:59:35.495Z,98495.53
